sensor_id;sensor_type;location;lat;lon;timestamp;temperature;humidity
45619;DHT22;31343;47.520;19.144;2022-08-21T00:01:14;20.90;99.90
45619;DHT22;31343;47.520;19.144;2022-08-21T00:03:40;20.80;99.90
45619;DHT22;31343;47.520;19.144;2022-08-21T00:06:06;20.80;99.90
45619;DHT22;31343;47.520;19.144;2022-08-21T00:08:32;20.80;99.90
45619;DHT22;31343;47.520;19.144;2022-08-21T00:10:57;20.80;99.90
45619;DHT22;31343;47.520;19.144;2022-08-21T00:13:23;20.80;99.90
45619;DHT22;31343;47.520;19.144;2022-08-21T00:15:48;20.70;99.90
45619;DHT22;31343;47.520;19.144;2022-08-21T00:18:14;20.70;99.90
45619;DHT22;31343;47.520;19.144;2022-08-21T00:20:41;20.70;99.90
45619;DHT22;31343;47.520;19.144;2022-08-21T00:23:07;20.70;99.90
45619;DHT22;31343;47.520;19.144;2022-08-21T00:25:33;20.70;99.90
45619;DHT22;31343;47.520;19.144;2022-08-21T00:27:58;20.70;99.90
45619;DHT22;31343;47.520;19.144;2022-08-21T00:30:24;20.60;99.90
45619;DHT22;31343;47.520;19.144;2022-08-21T00:32:51;20.50;99.90
45619;DHT22;31343;47.520;19.144;2022-08-21T00:35:17;20.60;99.90
45619;DHT22;31343;47.520;19.144;2022-08-21T00:37:43;20.50;99.90
45619;DHT22;31343;47.520;19.144;2022-08-21T00:40:10;20.50;99.90
45619;DHT22;31343;47.520;19.144;2022-08-21T00:42:36;20.50;99.90
45619;DHT22;31343;47.520;19.144;2022-08-21T00:45:03;20.50;99.90
45619;DHT22;31343;47.520;19.144;2022-08-21T00:47:28;20.50;99.90
45619;DHT22;31343;47.520;19.144;2022-08-21T00:49:54;20.40;99.90
45619;DHT22;31343;47.520;19.144;2022-08-21T00:52:21;20.40;99.90
45619;DHT22;31343;47.520;19.144;2022-08-21T00:54:47;20.40;99.90
45619;DHT22;31343;47.520;19.144;2022-08-21T00:57:15;20.40;99.90
45619;DHT22;31343;47.520;19.144;2022-08-21T00:59:43;20.40;99.90
45619;DHT22;31343;47.520;19.144;2022-08-21T01:02:11;20.40;99.90
45619;DHT22;31343;47.520;19.144;2022-08-21T01:04:37;20.30;99.90
45619;DHT22;31343;47.520;19.144;2022-08-21T01:07:03;20.40;99.90
45619;DHT22;31343;47.520;19.144;2022-08-21T01:09:29;20.30;99.90
45619;DHT22;31343;47.520;19.144;2022-08-21T01:11:54;20.30;99.90
45619;DHT22;31343;47.520;19.144;2022-08-21T01:14:20;20.30;99.90
45619;DHT22;31343;47.520;19.144;2022-08-21T01:16:47;20.30;99.90
45619;DHT22;31343;47.520;19.144;2022-08-21T01:19:13;20.30;99.90
45619;DHT22;31343;47.520;19.144;2022-08-21T01:21:40;20.30;99.90
45619;DHT22;31343;47.520;19.144;2022-08-21T01:24:06;20.30;99.90
45619;DHT22;31343;47.520;19.144;2022-08-21T01:26:34;20.30;99.90
45619;DHT22;31343;47.520;19.144;2022-08-21T01:29:12;20.30;99.90
45619;DHT22;31343;47.520;19.144;2022-08-21T01:31:39;20.30;99.90
45619;DHT22;31343;47.520;19.144;2022-08-21T01:34:05;20.30;99.90
45619;DHT22;31343;47.520;19.144;2022-08-21T01:36:31;20.20;99.90
45619;DHT22;31343;47.520;19.144;2022-08-21T01:38:57;20.20;99.90
45619;DHT22;31343;47.520;19.144;2022-08-21T01:41:22;20.10;99.90
45619;DHT22;31343;47.520;19.144;2022-08-21T01:43:48;20.10;99.90
45619;DHT22;31343;47.520;19.144;2022-08-21T01:46:13;20.10;99.90
45619;DHT22;31343;47.520;19.144;2022-08-21T01:48:39;20.10;99.90
45619;DHT22;31343;47.520;19.144;2022-08-21T01:51:05;20.10;99.90
45619;DHT22;31343;47.520;19.144;2022-08-21T01:53:31;20.10;99.90
45619;DHT22;31343;47.520;19.144;2022-08-21T01:55:59;20.10;99.90
45619;DHT22;31343;47.520;19.144;2022-08-21T01:58:24;20.10;99.90
45619;DHT22;31343;47.520;19.144;2022-08-21T02:00:50;20.10;99.90
45619;DHT22;31343;47.520;19.144;2022-08-21T02:03:15;20.10;99.90
45619;DHT22;31343;47.520;19.144;2022-08-21T02:05:41;20.10;99.90
45619;DHT22;31343;47.520;19.144;2022-08-21T02:08:07;20.10;99.90
45619;DHT22;31343;47.520;19.144;2022-08-21T02:10:33;20.00;99.90
45619;DHT22;31343;47.520;19.144;2022-08-21T02:12:59;20.10;99.90
45619;DHT22;31343;47.520;19.144;2022-08-21T02:15:26;20.00;99.90
45619;DHT22;31343;47.520;19.144;2022-08-21T02:17:53;20.00;99.90
45619;DHT22;31343;47.520;19.144;2022-08-21T02:20:24;20.00;99.90
45619;DHT22;31343;47.520;19.144;2022-08-21T02:22:50;20.00;99.90
45619;DHT22;31343;47.520;19.144;2022-08-21T02:25:16;20.00;99.90
45619;DHT22;31343;47.520;19.144;2022-08-21T02:27:43;20.00;99.90
45619;DHT22;31343;47.520;19.144;2022-08-21T02:30:10;20.00;99.90
45619;DHT22;31343;47.520;19.144;2022-08-21T02:32:36;20.00;99.90
45619;DHT22;31343;47.520;19.144;2022-08-21T02:35:02;20.00;99.90
45619;DHT22;31343;47.520;19.144;2022-08-21T02:37:28;20.00;99.90
45619;DHT22;31343;47.520;19.144;2022-08-21T02:39:53;20.00;99.90
45619;DHT22;31343;47.520;19.144;2022-08-21T02:42:19;20.00;99.90
45619;DHT22;31343;47.520;19.144;2022-08-21T02:44:45;19.90;99.90
45619;DHT22;31343;47.520;19.144;2022-08-21T02:47:10;19.90;99.90
45619;DHT22;31343;47.520;19.144;2022-08-21T02:49:36;19.90;99.90
45619;DHT22;31343;47.520;19.144;2022-08-21T02:52:01;20.00;99.90
45619;DHT22;31343;47.520;19.144;2022-08-21T02:54:27;19.90;99.90
45619;DHT22;31343;47.520;19.144;2022-08-21T02:56:52;19.90;99.90
45619;DHT22;31343;47.520;19.144;2022-08-21T02:59:18;19.90;99.90
45619;DHT22;31343;47.520;19.144;2022-08-21T03:01:44;20.00;99.90
45619;DHT22;31343;47.520;19.144;2022-08-21T03:04:09;19.90;99.90
45619;DHT22;31343;47.520;19.144;2022-08-21T03:06:35;19.90;99.90
45619;DHT22;31343;47.520;19.144;2022-08-21T03:09:01;19.90;99.90
45619;DHT22;31343;47.520;19.144;2022-08-21T03:11:27;19.90;99.90
45619;DHT22;31343;47.520;19.144;2022-08-21T03:13:52;19.90;99.90
45619;DHT22;31343;47.520;19.144;2022-08-21T03:16:18;19.90;99.90
45619;DHT22;31343;47.520;19.144;2022-08-21T03:18:44;19.90;99.90
45619;DHT22;31343;47.520;19.144;2022-08-21T03:21:10;19.90;99.90
45619;DHT22;31343;47.520;19.144;2022-08-21T03:23:36;20.00;99.90
45619;DHT22;31343;47.520;19.144;2022-08-21T03:26:01;20.00;99.90
45619;DHT22;31343;47.520;19.144;2022-08-21T03:28:27;20.00;99.90
45619;DHT22;31343;47.520;19.144;2022-08-21T03:30:53;20.00;99.90
45619;DHT22;31343;47.520;19.144;2022-08-21T03:33:19;20.00;99.90
45619;DHT22;31343;47.520;19.144;2022-08-21T03:35:46;20.00;99.90
45619;DHT22;31343;47.520;19.144;2022-08-21T03:38:12;20.00;99.90
45619;DHT22;31343;47.520;19.144;2022-08-21T03:40:38;20.00;99.90
45619;DHT22;31343;47.520;19.144;2022-08-21T03:43:04;19.90;99.90
45619;DHT22;31343;47.520;19.144;2022-08-21T03:45:30;20.00;99.90
45619;DHT22;31343;47.520;19.144;2022-08-21T03:50:22;20.00;99.90
45619;DHT22;31343;47.520;19.144;2022-08-21T03:52:47;20.00;99.90
45619;DHT22;31343;47.520;19.144;2022-08-21T03:55:13;20.00;99.90
45619;DHT22;31343;47.520;19.144;2022-08-21T03:57:38;20.00;99.90
45619;DHT22;31343;47.520;19.144;2022-08-21T04:00:04;20.00;99.90
45619;DHT22;31343;47.520;19.144;2022-08-21T04:02:30;20.10;99.90
45619;DHT22;31343;47.520;19.144;2022-08-21T04:04:55;20.00;99.90
45619;DHT22;31343;47.520;19.144;2022-08-21T04:07:21;20.00;99.90
45619;DHT22;31343;47.520;19.144;2022-08-21T04:09:46;20.00;99.90
45619;DHT22;31343;47.520;19.144;2022-08-21T04:12:12;20.00;99.90
45619;DHT22;31343;47.520;19.144;2022-08-21T04:14:38;20.10;99.90
45619;DHT22;31343;47.520;19.144;2022-08-21T04:17:03;20.10;99.90
45619;DHT22;31343;47.520;19.144;2022-08-21T04:19:29;20.10;99.90
45619;DHT22;31343;47.520;19.144;2022-08-21T04:21:54;20.10;99.90
45619;DHT22;31343;47.520;19.144;2022-08-21T04:24:20;20.10;99.90
45619;DHT22;31343;47.520;19.144;2022-08-21T04:26:46;20.10;99.90
45619;DHT22;31343;47.520;19.144;2022-08-21T04:29:11;20.10;99.90
45619;DHT22;31343;47.520;19.144;2022-08-21T04:31:37;20.10;99.90
45619;DHT22;31343;47.520;19.144;2022-08-21T04:34:03;20.20;99.90
45619;DHT22;31343;47.520;19.144;2022-08-21T04:36:30;20.20;99.90
45619;DHT22;31343;47.520;19.144;2022-08-21T04:38:55;20.20;99.90
45619;DHT22;31343;47.520;19.144;2022-08-21T04:41:21;20.20;99.90
45619;DHT22;31343;47.520;19.144;2022-08-21T04:43:47;20.20;99.90
45619;DHT22;31343;47.520;19.144;2022-08-21T04:46:12;20.20;99.90
45619;DHT22;31343;47.520;19.144;2022-08-21T04:48:38;20.20;99.90
45619;DHT22;31343;47.520;19.144;2022-08-21T04:53:52;20.30;99.90
45619;DHT22;31343;47.520;19.144;2022-08-21T04:56:22;20.30;99.90
45619;DHT22;31343;47.520;19.144;2022-08-21T04:58:48;20.30;99.90
45619;DHT22;31343;47.520;19.144;2022-08-21T05:01:19;20.30;99.90
45619;DHT22;31343;47.520;19.144;2022-08-21T05:03:46;20.30;99.90
45619;DHT22;31343;47.520;19.144;2022-08-21T05:06:13;20.40;99.90
45619;DHT22;31343;47.520;19.144;2022-08-21T05:08:39;20.40;99.90
45619;DHT22;31343;47.520;19.144;2022-08-21T05:11:06;20.40;99.90
45619;DHT22;31343;47.520;19.144;2022-08-21T05:13:32;20.40;99.90
45619;DHT22;31343;47.520;19.144;2022-08-21T05:15:57;20.40;99.90
45619;DHT22;31343;47.520;19.144;2022-08-21T05:18:24;20.50;99.90
45619;DHT22;31343;47.520;19.144;2022-08-21T05:20:49;20.50;99.90
45619;DHT22;31343;47.520;19.144;2022-08-21T05:23:16;20.40;99.90
45619;DHT22;31343;47.520;19.144;2022-08-21T05:25:42;20.40;99.90
45619;DHT22;31343;47.520;19.144;2022-08-21T05:28:09;20.50;99.90
45619;DHT22;31343;47.520;19.144;2022-08-21T05:30:37;20.50;99.90
45619;DHT22;31343;47.520;19.144;2022-08-21T05:33:03;20.50;99.90
45619;DHT22;31343;47.520;19.144;2022-08-21T05:35:29;20.50;99.90
45619;DHT22;31343;47.520;19.144;2022-08-21T05:37:55;20.50;99.90
45619;DHT22;31343;47.520;19.144;2022-08-21T05:40:21;20.50;99.90
45619;DHT22;31343;47.520;19.144;2022-08-21T05:42:47;20.50;99.90
45619;DHT22;31343;47.520;19.144;2022-08-21T05:45:13;20.50;99.90
45619;DHT22;31343;47.520;19.144;2022-08-21T05:47:39;20.60;99.90
45619;DHT22;31343;47.520;19.144;2022-08-21T05:50:05;20.60;99.90
45619;DHT22;31343;47.520;19.144;2022-08-21T05:52:30;20.70;99.90
45619;DHT22;31343;47.520;19.144;2022-08-21T05:54:56;20.60;99.90
45619;DHT22;31343;47.520;19.144;2022-08-21T05:57:22;20.60;99.90
45619;DHT22;31343;47.520;19.144;2022-08-21T05:59:49;20.60;99.90
45619;DHT22;31343;47.520;19.144;2022-08-21T06:02:16;20.70;99.90
45619;DHT22;31343;47.520;19.144;2022-08-21T06:04:42;20.70;99.90
45619;DHT22;31343;47.520;19.144;2022-08-21T06:07:08;20.80;99.90
45619;DHT22;31343;47.520;19.144;2022-08-21T06:09:33;20.90;99.90
45619;DHT22;31343;47.520;19.144;2022-08-21T06:12:03;20.90;99.90
45619;DHT22;31343;47.520;19.144;2022-08-21T06:14:28;20.90;99.90
45619;DHT22;31343;47.520;19.144;2022-08-21T06:16:54;21.00;99.90
45619;DHT22;31343;47.520;19.144;2022-08-21T06:19:19;21.00;99.90
45619;DHT22;31343;47.520;19.144;2022-08-21T06:21:45;20.90;99.90
45619;DHT22;31343;47.520;19.144;2022-08-21T06:24:11;21.00;99.90
45619;DHT22;31343;47.520;19.144;2022-08-21T06:26:36;21.00;99.90
45619;DHT22;31343;47.520;19.144;2022-08-21T06:29:02;21.00;99.90
45619;DHT22;31343;47.520;19.144;2022-08-21T06:31:28;21.10;99.90
45619;DHT22;31343;47.520;19.144;2022-08-21T06:33:54;21.20;99.90
45619;DHT22;31343;47.520;19.144;2022-08-21T06:36:20;21.20;99.90
45619;DHT22;31343;47.520;19.144;2022-08-21T06:38:48;21.30;99.90
45619;DHT22;31343;47.520;19.144;2022-08-21T06:41:14;21.30;99.90
45619;DHT22;31343;47.520;19.144;2022-08-21T06:43:39;21.30;99.90
45619;DHT22;31343;47.520;19.144;2022-08-21T06:46:05;21.40;99.90
45619;DHT22;31343;47.520;19.144;2022-08-21T06:48:32;21.50;99.90
45619;DHT22;31343;47.520;19.144;2022-08-21T06:50:59;21.60;99.90
45619;DHT22;31343;47.520;19.144;2022-08-21T06:53:25;21.70;99.90
45619;DHT22;31343;47.520;19.144;2022-08-21T06:55:50;21.90;99.90
45619;DHT22;31343;47.520;19.144;2022-08-21T06:58:16;22.00;99.90
45619;DHT22;31343;47.520;19.144;2022-08-21T07:00:44;22.20;99.90
45619;DHT22;31343;47.520;19.144;2022-08-21T07:03:20;22.20;99.90
45619;DHT22;31343;47.520;19.144;2022-08-21T07:05:46;22.20;99.90
45619;DHT22;31343;47.520;19.144;2022-08-21T07:08:12;22.30;99.90
45619;DHT22;31343;47.520;19.144;2022-08-21T07:10:38;22.40;99.90
45619;DHT22;31343;47.520;19.144;2022-08-21T07:13:04;22.50;99.90
45619;DHT22;31343;47.520;19.144;2022-08-21T07:15:29;22.40;99.90
45619;DHT22;31343;47.520;19.144;2022-08-21T07:17:55;22.60;99.90
45619;DHT22;31343;47.520;19.144;2022-08-21T07:20:21;22.60;99.90
45619;DHT22;31343;47.520;19.144;2022-08-21T07:22:47;22.70;99.90
45619;DHT22;31343;47.520;19.144;2022-08-21T07:25:12;22.70;99.90
45619;DHT22;31343;47.520;19.144;2022-08-21T07:27:38;22.70;99.90
45619;DHT22;31343;47.520;19.144;2022-08-21T07:30:04;22.70;99.90
45619;DHT22;31343;47.520;19.144;2022-08-21T07:32:30;22.80;99.90
45619;DHT22;31343;47.520;19.144;2022-08-21T07:34:55;22.90;99.90
45619;DHT22;31343;47.520;19.144;2022-08-21T07:37:21;22.90;99.90
45619;DHT22;31343;47.520;19.144;2022-08-21T07:39:47;23.00;99.90
45619;DHT22;31343;47.520;19.144;2022-08-21T07:42:14;23.00;99.90
45619;DHT22;31343;47.520;19.144;2022-08-21T07:44:41;23.10;99.90
45619;DHT22;31343;47.520;19.144;2022-08-21T07:47:06;23.10;99.90
45619;DHT22;31343;47.520;19.144;2022-08-21T07:49:32;23.10;99.90
45619;DHT22;31343;47.520;19.144;2022-08-21T07:51:57;23.10;99.90
45619;DHT22;31343;47.520;19.144;2022-08-21T07:54:23;23.10;99.90
45619;DHT22;31343;47.520;19.144;2022-08-21T07:56:48;23.40;99.90
45619;DHT22;31343;47.520;19.144;2022-08-21T07:59:15;23.60;99.90
45619;DHT22;31343;47.520;19.144;2022-08-21T08:01:41;23.80;99.90
45619;DHT22;31343;47.520;19.144;2022-08-21T08:04:06;24.20;99.90
45619;DHT22;31343;47.520;19.144;2022-08-21T08:06:32;24.60;99.90
45619;DHT22;31343;47.520;19.144;2022-08-21T08:08:57;24.60;99.90
45619;DHT22;31343;47.520;19.144;2022-08-21T08:11:23;24.40;99.90
45619;DHT22;31343;47.520;19.144;2022-08-21T08:13:49;24.10;99.90
45619;DHT22;31343;47.520;19.144;2022-08-21T08:16:15;24.00;99.90
45619;DHT22;31343;47.520;19.144;2022-08-21T08:18:41;24.10;99.90
45619;DHT22;31343;47.520;19.144;2022-08-21T08:21:07;24.20;99.90
45619;DHT22;31343;47.520;19.144;2022-08-21T08:23:33;24.40;99.90
45619;DHT22;31343;47.520;19.144;2022-08-21T08:25:59;24.50;99.90
45619;DHT22;31343;47.520;19.144;2022-08-21T08:28:25;24.60;99.90
45619;DHT22;31343;47.520;19.144;2022-08-21T08:30:51;24.60;99.90
45619;DHT22;31343;47.520;19.144;2022-08-21T08:33:17;24.70;99.90
45619;DHT22;31343;47.520;19.144;2022-08-21T08:35:46;24.70;99.90
45619;DHT22;31343;47.520;19.144;2022-08-21T08:38:13;24.80;99.90
45619;DHT22;31343;47.520;19.144;2022-08-21T08:43:09;25.20;99.90
45619;DHT22;31343;47.520;19.144;2022-08-21T08:45:36;25.10;99.90
45619;DHT22;31343;47.520;19.144;2022-08-21T08:48:03;25.20;99.90
45619;DHT22;31343;47.520;19.144;2022-08-21T08:53:00;25.20;99.90
45619;DHT22;31343;47.520;19.144;2022-08-21T08:55:37;25.40;99.90
45619;DHT22;31343;47.520;19.144;2022-08-21T08:58:04;25.70;99.90
45619;DHT22;31343;47.520;19.144;2022-08-21T09:00:32;25.50;99.90
45619;DHT22;31343;47.520;19.144;2022-08-21T09:02:59;25.40;99.90
45619;DHT22;31343;47.520;19.144;2022-08-21T09:05:27;25.30;99.90
45619;DHT22;31343;47.520;19.144;2022-08-21T09:08:04;25.20;99.90
45619;DHT22;31343;47.520;19.144;2022-08-21T09:13:24;25.60;99.90
45619;DHT22;31343;47.520;19.144;2022-08-21T09:18:46;25.60;99.90
45619;DHT22;31343;47.520;19.144;2022-08-21T09:26:15;26.10;99.90
45619;DHT22;31343;47.520;19.144;2022-08-21T09:28:42;25.90;99.90
45619;DHT22;31343;47.520;19.144;2022-08-21T09:31:09;25.90;99.90
45619;DHT22;31343;47.520;19.144;2022-08-21T09:33:37;26.00;99.90
45619;DHT22;31343;47.520;19.144;2022-08-21T09:36:02;25.70;99.90
45619;DHT22;31343;47.520;19.144;2022-08-21T09:38:30;25.60;99.90
45619;DHT22;31343;47.520;19.144;2022-08-21T09:41:03;25.70;99.90
45619;DHT22;31343;47.520;19.144;2022-08-21T09:43:29;25.90;99.90
45619;DHT22;31343;47.520;19.144;2022-08-21T09:46:03;26.00;99.90
45619;DHT22;31343;47.520;19.144;2022-08-21T09:48:29;26.20;99.90
45619;DHT22;31343;47.520;19.144;2022-08-21T09:51:07;26.40;99.90
45619;DHT22;31343;47.520;19.144;2022-08-21T09:53:33;26.60;99.90
45619;DHT22;31343;47.520;19.144;2022-08-21T09:56:02;26.80;99.90
45619;DHT22;31343;47.520;19.144;2022-08-21T09:58:47;27.00;99.90
45619;DHT22;31343;47.520;19.144;2022-08-21T10:01:15;27.00;99.90
45619;DHT22;31343;47.520;19.144;2022-08-21T10:03:40;27.20;99.90
45619;DHT22;31343;47.520;19.144;2022-08-21T10:06:07;27.30;99.90
45619;DHT22;31343;47.520;19.144;2022-08-21T10:08:35;27.10;99.90
45619;DHT22;31343;47.520;19.144;2022-08-21T10:11:10;26.80;99.90
45619;DHT22;31343;47.520;19.144;2022-08-21T10:16:31;27.00;99.90
45619;DHT22;31343;47.520;19.144;2022-08-21T10:26:56;27.00;99.90
45619;DHT22;31343;47.520;19.144;2022-08-21T10:31:59;27.20;99.90
45619;DHT22;31343;47.520;19.144;2022-08-21T10:39:39;26.80;99.90
45619;DHT22;31343;47.520;19.144;2022-08-21T10:42:14;26.80;99.90
45619;DHT22;31343;47.520;19.144;2022-08-21T10:55:36;25.80;99.90
45619;DHT22;31343;47.520;19.144;2022-08-21T10:58:14;25.50;99.90
45619;DHT22;31343;47.520;19.144;2022-08-21T11:03:11;25.60;99.90
45619;DHT22;31343;47.520;19.144;2022-08-21T11:08:23;25.70;99.90
45619;DHT22;31343;47.520;19.144;2022-08-21T11:11:09;25.70;99.90
45619;DHT22;31343;47.520;19.144;2022-08-21T11:16:12;25.30;99.90
45619;DHT22;31343;47.520;19.144;2022-08-21T11:19:05;25.50;99.90
45619;DHT22;31343;47.520;19.144;2022-08-21T11:21:29;25.60;99.90
45619;DHT22;31343;47.520;19.144;2022-08-21T11:26:47;26.10;99.90
45619;DHT22;31343;47.520;19.144;2022-08-21T11:29:21;26.20;99.90
45619;DHT22;31343;47.520;19.144;2022-08-21T11:31:51;26.20;99.90
45619;DHT22;31343;47.520;19.144;2022-08-21T11:41:47;26.30;99.90
45619;DHT22;31343;47.520;19.144;2022-08-21T11:47:03;26.30;99.90
45619;DHT22;31343;47.520;19.144;2022-08-21T11:57:05;26.20;99.90
45619;DHT22;31343;47.520;19.144;2022-08-21T11:59:41;25.80;99.90
45619;DHT22;31343;47.520;19.144;2022-08-21T12:02:16;25.90;99.90
45619;DHT22;31343;47.520;19.144;2022-08-21T12:04:47;25.90;99.90
45619;DHT22;31343;47.520;19.144;2022-08-21T12:07:16;26.00;99.90
45619;DHT22;31343;47.520;19.144;2022-08-21T12:09:52;25.80;99.90
45619;DHT22;31343;47.520;19.144;2022-08-21T12:12:25;25.80;99.90
45619;DHT22;31343;47.520;19.144;2022-08-21T12:15:03;25.70;99.90
45619;DHT22;31343;47.520;19.144;2022-08-21T12:17:35;25.70;99.90
45619;DHT22;31343;47.520;19.144;2022-08-21T12:20:15;25.70;99.90
45619;DHT22;31343;47.520;19.144;2022-08-21T12:22:41;25.50;99.90
45619;DHT22;31343;47.520;19.144;2022-08-21T12:25:16;25.50;99.90
45619;DHT22;31343;47.520;19.144;2022-08-21T12:27:46;25.30;99.90
45619;DHT22;31343;47.520;19.144;2022-08-21T12:30:20;25.30;99.90
45619;DHT22;31343;47.520;19.144;2022-08-21T12:32:53;25.00;99.90
45619;DHT22;31343;47.520;19.144;2022-08-21T12:35:27;25.00;99.90
45619;DHT22;31343;47.520;19.144;2022-08-21T12:37:57;24.90;99.90
45619;DHT22;31343;47.520;19.144;2022-08-21T12:42:51;24.90;99.90
45619;DHT22;31343;47.520;19.144;2022-08-21T12:45:18;24.90;99.90
45619;DHT22;31343;47.520;19.144;2022-08-21T12:47:49;25.00;99.90
45619;DHT22;31343;47.520;19.144;2022-08-21T12:50:17;25.10;99.90
45619;DHT22;31343;47.520;19.144;2022-08-21T12:55:13;25.30;99.90
45619;DHT22;31343;47.520;19.144;2022-08-21T12:57:40;25.40;99.90
45619;DHT22;31343;47.520;19.144;2022-08-21T13:00:08;25.40;99.90
45619;DHT22;31343;47.520;19.144;2022-08-21T13:02:37;25.20;99.90
45619;DHT22;31343;47.520;19.144;2022-08-21T13:05:08;24.80;99.90
45619;DHT22;31343;47.520;19.144;2022-08-21T13:07:37;24.40;99.90
45619;DHT22;31343;47.520;19.144;2022-08-21T13:12:44;24.30;99.90
45619;DHT22;31343;47.520;19.144;2022-08-21T13:15:11;24.30;99.90
45619;DHT22;31343;47.520;19.144;2022-08-21T13:17:41;24.30;99.90
45619;DHT22;31343;47.520;19.144;2022-08-21T13:21:01;24.10;99.90
45619;DHT22;31343;47.520;19.144;2022-08-21T13:23:00;24.10;99.90
45619;DHT22;31343;47.520;19.144;2022-08-21T13:25:27;24.10;99.90
45619;DHT22;31343;47.520;19.144;2022-08-21T13:28:12;24.10;99.90
45619;DHT22;31343;47.520;19.144;2022-08-21T13:30:44;24.10;99.90
45619;DHT22;31343;47.520;19.144;2022-08-21T13:33:10;24.10;99.90
45619;DHT22;31343;47.520;19.144;2022-08-21T13:38:22;24.20;99.90
45619;DHT22;31343;47.520;19.144;2022-08-21T13:40:51;24.20;99.90
45619;DHT22;31343;47.520;19.144;2022-08-21T13:43:20;24.40;99.90
45619;DHT22;31343;47.520;19.144;2022-08-21T13:45:50;24.40;99.90
45619;DHT22;31343;47.520;19.144;2022-08-21T13:48:16;24.30;99.90
45619;DHT22;31343;47.520;19.144;2022-08-21T13:50:43;24.30;99.90
45619;DHT22;31343;47.520;19.144;2022-08-21T13:53:22;24.30;99.90
45619;DHT22;31343;47.520;19.144;2022-08-21T13:55:49;24.20;99.90
45619;DHT22;31343;47.520;19.144;2022-08-21T13:58:23;24.10;99.90
45619;DHT22;31343;47.520;19.144;2022-08-21T14:00:49;23.90;99.90
45619;DHT22;31343;47.520;19.144;2022-08-21T14:03:25;23.90;99.90
45619;DHT22;31343;47.520;19.144;2022-08-21T14:05:51;23.80;99.90
45619;DHT22;31343;47.520;19.144;2022-08-21T14:08:36;23.80;99.90
45619;DHT22;31343;47.520;19.144;2022-08-21T14:11:04;23.80;99.90
45619;DHT22;31343;47.520;19.144;2022-08-21T14:16:00;23.60;99.90
45619;DHT22;31343;47.520;19.144;2022-08-21T14:18:26;23.40;99.90
45619;DHT22;31343;47.520;19.144;2022-08-21T14:21:03;23.20;99.90
45619;DHT22;31343;47.520;19.144;2022-08-21T14:23:29;23.10;99.90
45619;DHT22;31343;47.520;19.144;2022-08-21T14:25:55;23.10;99.90
45619;DHT22;31343;47.520;19.144;2022-08-21T14:28:41;23.20;99.90
45619;DHT22;31343;47.520;19.144;2022-08-21T14:31:18;23.20;99.90
45619;DHT22;31343;47.520;19.144;2022-08-21T14:33:43;23.40;99.90
45619;DHT22;31343;47.520;19.144;2022-08-21T14:36:09;23.50;99.90
45619;DHT22;31343;47.520;19.144;2022-08-21T14:38:36;23.50;99.90
45619;DHT22;31343;47.520;19.144;2022-08-21T14:41:04;23.50;99.90
45619;DHT22;31343;47.520;19.144;2022-08-21T14:43:32;23.50;99.90
45619;DHT22;31343;47.520;19.144;2022-08-21T14:45:57;23.50;99.90
45619;DHT22;31343;47.520;19.144;2022-08-21T14:48:23;23.40;99.90
45619;DHT22;31343;47.520;19.144;2022-08-21T14:50:50;23.40;99.90
45619;DHT22;31343;47.520;19.144;2022-08-21T14:53:17;23.50;99.90
45619;DHT22;31343;47.520;19.144;2022-08-21T14:55:42;23.50;99.90
45619;DHT22;31343;47.520;19.144;2022-08-21T14:58:26;23.50;99.90
45619;DHT22;31343;47.520;19.144;2022-08-21T15:00:52;23.60;99.90
45619;DHT22;31343;47.520;19.144;2022-08-21T15:03:19;23.50;99.90
45619;DHT22;31343;47.520;19.144;2022-08-21T15:05:47;23.50;99.90
45619;DHT22;31343;47.520;19.144;2022-08-21T15:08:13;23.50;99.90
45619;DHT22;31343;47.520;19.144;2022-08-21T15:10:38;23.40;99.90
45619;DHT22;31343;47.520;19.144;2022-08-21T15:13:05;23.30;99.90
45619;DHT22;31343;47.520;19.144;2022-08-21T15:15:36;23.20;99.90
45619;DHT22;31343;47.520;19.144;2022-08-21T15:18:04;23.20;99.90
45619;DHT22;31343;47.520;19.144;2022-08-21T15:20:30;23.10;99.90
45619;DHT22;31343;47.520;19.144;2022-08-21T15:22:56;23.20;99.90
45619;DHT22;31343;47.520;19.144;2022-08-21T15:25:22;23.20;99.90
45619;DHT22;31343;47.520;19.144;2022-08-21T15:27:47;23.20;99.90
45619;DHT22;31343;47.520;19.144;2022-08-21T15:30:13;23.20;99.90
45619;DHT22;31343;47.520;19.144;2022-08-21T15:32:39;23.20;99.90
45619;DHT22;31343;47.520;19.144;2022-08-21T15:35:06;23.10;99.90
45619;DHT22;31343;47.520;19.144;2022-08-21T15:37:32;23.10;99.90
45619;DHT22;31343;47.520;19.144;2022-08-21T15:39:57;23.10;99.90
45619;DHT22;31343;47.520;19.144;2022-08-21T15:42:23;23.10;99.90
45619;DHT22;31343;47.520;19.144;2022-08-21T15:44:50;23.00;99.90
45619;DHT22;31343;47.520;19.144;2022-08-21T15:47:17;22.90;99.90
45619;DHT22;31343;47.520;19.144;2022-08-21T15:49:43;22.90;99.90
45619;DHT22;31343;47.520;19.144;2022-08-21T15:52:14;22.90;99.90
45619;DHT22;31343;47.520;19.144;2022-08-21T15:54:40;22.90;99.90
45619;DHT22;31343;47.520;19.144;2022-08-21T15:57:06;22.80;99.90
45619;DHT22;31343;47.520;19.144;2022-08-21T15:59:38;22.70;99.90
45619;DHT22;31343;47.520;19.144;2022-08-21T16:02:05;22.80;99.90
45619;DHT22;31343;47.520;19.144;2022-08-21T16:04:31;22.70;99.90
45619;DHT22;31343;47.520;19.144;2022-08-21T16:06:57;22.60;99.90
45619;DHT22;31343;47.520;19.144;2022-08-21T16:09:22;22.60;99.90
45619;DHT22;31343;47.520;19.144;2022-08-21T16:11:48;22.50;99.90
45619;DHT22;31343;47.520;19.144;2022-08-21T16:14:14;22.50;99.90
45619;DHT22;31343;47.520;19.144;2022-08-21T16:16:40;22.50;99.90
45619;DHT22;31343;47.520;19.144;2022-08-21T16:19:06;22.40;99.90
45619;DHT22;31343;47.520;19.144;2022-08-21T16:21:32;22.30;99.90
45619;DHT22;31343;47.520;19.144;2022-08-21T16:23:58;22.30;99.90
45619;DHT22;31343;47.520;19.144;2022-08-21T16:26:24;22.20;99.90
45619;DHT22;31343;47.520;19.144;2022-08-21T16:28:50;22.20;99.90
45619;DHT22;31343;47.520;19.144;2022-08-21T16:31:17;22.00;99.90
45619;DHT22;31343;47.520;19.144;2022-08-21T16:33:48;21.90;99.90
45619;DHT22;31343;47.520;19.144;2022-08-21T16:36:14;21.90;99.90
45619;DHT22;31343;47.520;19.144;2022-08-21T16:38:40;21.80;99.90
45619;DHT22;31343;47.520;19.144;2022-08-21T16:41:09;21.80;99.90
45619;DHT22;31343;47.520;19.144;2022-08-21T16:43:35;21.80;99.90
45619;DHT22;31343;47.520;19.144;2022-08-21T16:46:03;21.80;99.90
45619;DHT22;31343;47.520;19.144;2022-08-21T16:48:28;21.70;99.90